sensor_id;sensor_type;location;lat;lon;timestamp;temperature;humidity
36450;DHT22;22475;51.390;7.180;2023-12-22T00:00:43;12.00;79.10
36450;DHT22;22475;51.390;7.180;2023-12-22T00:03:12;12.00;79.20
36450;DHT22;22475;51.390;7.180;2023-12-22T00:05:39;12.00;79.90
36450;DHT22;22475;51.390;7.180;2023-12-22T00:08:06;12.00;79.60
36450;DHT22;22475;51.390;7.180;2023-12-22T00:10:33;12.00;80.10
36450;DHT22;22475;51.390;7.180;2023-12-22T00:13:00;12.10;81.90
36450;DHT22;22475;51.390;7.180;2023-12-22T00:15:28;12.00;80.10
36450;DHT22;22475;51.390;7.180;2023-12-22T00:17:55;12.00;79.60
36450;DHT22;22475;51.390;7.180;2023-12-22T00:20:21;12.00;81.00
36450;DHT22;22475;51.390;7.180;2023-12-22T00:22:48;12.10;81.30
36450;DHT22;22475;51.390;7.180;2023-12-22T00:25:15;12.10;81.00
36450;DHT22;22475;51.390;7.180;2023-12-22T00:27:42;12.00;80.20
36450;DHT22;22475;51.390;7.180;2023-12-22T00:30:10;12.00;80.20
36450;DHT22;22475;51.390;7.180;2023-12-22T00:32:38;12.00;81.10
36450;DHT22;22475;51.390;7.180;2023-12-22T00:35:05;12.00;81.40
36450;DHT22;22475;51.390;7.180;2023-12-22T00:37:32;12.00;80.90
36450;DHT22;22475;51.390;7.180;2023-12-22T00:39:59;12.00;80.90
36450;DHT22;22475;51.390;7.180;2023-12-22T00:42:26;12.00;81.40
36450;DHT22;22475;51.390;7.180;2023-12-22T00:44:53;11.90;81.30
36450;DHT22;22475;51.390;7.180;2023-12-22T00:47:19;12.00;81.40
36450;DHT22;22475;51.390;7.180;2023-12-22T00:49:47;11.90;81.40
36450;DHT22;22475;51.390;7.180;2023-12-22T00:52:14;11.90;81.60
36450;DHT22;22475;51.390;7.180;2023-12-22T00:54:41;11.90;83.30
36450;DHT22;22475;51.390;7.180;2023-12-22T00:57:08;11.90;82.80
36450;DHT22;22475;51.390;7.180;2023-12-22T00:59:34;11.90;82.30
36450;DHT22;22475;51.390;7.180;2023-12-22T01:02:01;11.90;83.30
36450;DHT22;22475;51.390;7.180;2023-12-22T01:04:28;11.90;82.40
36450;DHT22;22475;51.390;7.180;2023-12-22T01:06:56;11.90;82.30
36450;DHT22;22475;51.390;7.180;2023-12-22T01:09:23;11.90;82.60
36450;DHT22;22475;51.390;7.180;2023-12-22T01:11:49;11.90;82.60
36450;DHT22;22475;51.390;7.180;2023-12-22T01:14:16;11.90;82.70
36450;DHT22;22475;51.390;7.180;2023-12-22T01:16:43;12.00;83.70
36450;DHT22;22475;51.390;7.180;2023-12-22T01:19:10;12.00;83.50
36450;DHT22;22475;51.390;7.180;2023-12-22T01:21:36;11.90;83.00
36450;DHT22;22475;51.390;7.180;2023-12-22T01:24:05;11.90;83.00
36450;DHT22;22475;51.390;7.180;2023-12-22T01:26:31;11.90;84.40
36450;DHT22;22475;51.390;7.180;2023-12-22T01:28:58;12.00;83.90
36450;DHT22;22475;51.390;7.180;2023-12-22T01:31:25;12.00;83.70
36450;DHT22;22475;51.390;7.180;2023-12-22T01:33:51;11.90;83.40
36450;DHT22;22475;51.390;7.180;2023-12-22T01:36:18;11.90;83.20
36450;DHT22;22475;51.390;7.180;2023-12-22T01:38:45;11.80;82.40
36450;DHT22;22475;51.390;7.180;2023-12-22T01:41:13;11.70;79.10
36450;DHT22;22475;51.390;7.180;2023-12-22T01:43:40;11.70;78.80
36450;DHT22;22475;51.390;7.180;2023-12-22T01:46:07;11.60;79.10
36450;DHT22;22475;51.390;7.180;2023-12-22T01:48:35;11.60;79.90
36450;DHT22;22475;51.390;7.180;2023-12-22T01:51:04;11.40;78.40
36450;DHT22;22475;51.390;7.180;2023-12-22T01:53:31;11.40;79.70
36450;DHT22;22475;51.390;7.180;2023-12-22T01:56:00;11.30;79.90
36450;DHT22;22475;51.390;7.180;2023-12-22T01:58:31;11.40;80.40
36450;DHT22;22475;51.390;7.180;2023-12-22T02:00:59;11.40;80.20
36450;DHT22;22475;51.390;7.180;2023-12-22T02:03:26;11.50;80.00
36450;DHT22;22475;51.390;7.180;2023-12-22T02:05:53;11.50;80.50
36450;DHT22;22475;51.390;7.180;2023-12-22T02:08:21;11.50;79.70
36450;DHT22;22475;51.390;7.180;2023-12-22T02:10:49;11.50;79.80
36450;DHT22;22475;51.390;7.180;2023-12-22T02:13:15;11.50;80.50
36450;DHT22;22475;51.390;7.180;2023-12-22T02:15:44;11.50;80.50
36450;DHT22;22475;51.390;7.180;2023-12-22T02:18:25;11.50;80.80
36450;DHT22;22475;51.390;7.180;2023-12-22T02:20:53;11.60;83.90
36450;DHT22;22475;51.390;7.180;2023-12-22T02:23:21;11.50;81.70
36450;DHT22;22475;51.390;7.180;2023-12-22T02:25:48;11.50;83.00
36450;DHT22;22475;51.390;7.180;2023-12-22T02:28:17;11.50;82.30
36450;DHT22;22475;51.390;7.180;2023-12-22T02:30:53;11.50;81.40
36450;DHT22;22475;51.390;7.180;2023-12-22T02:33:23;11.50;81.90
36450;DHT22;22475;51.390;7.180;2023-12-22T02:35:51;11.60;83.00
36450;DHT22;22475;51.390;7.180;2023-12-22T02:38:20;11.60;82.10
36450;DHT22;22475;51.390;7.180;2023-12-22T02:40:48;11.60;82.60
36450;DHT22;22475;51.390;7.180;2023-12-22T02:43:15;11.70;84.80
36450;DHT22;22475;51.390;7.180;2023-12-22T02:45:42;11.80;84.20
36450;DHT22;22475;51.390;7.180;2023-12-22T02:48:09;11.60;82.60
36450;DHT22;22475;51.390;7.180;2023-12-22T02:50:34;11.70;83.60
36450;DHT22;22475;51.390;7.180;2023-12-22T02:53:01;11.60;83.20
36450;DHT22;22475;51.390;7.180;2023-12-22T02:55:29;11.60;82.80
36450;DHT22;22475;51.390;7.180;2023-12-22T02:57:56;11.50;82.50
36450;DHT22;22475;51.390;7.180;2023-12-22T03:00:23;11.50;82.60
36450;DHT22;22475;51.390;7.180;2023-12-22T03:02:49;11.50;82.80
36450;DHT22;22475;51.390;7.180;2023-12-22T03:05:16;11.50;83.40
36450;DHT22;22475;51.390;7.180;2023-12-22T03:07:43;11.50;83.30
36450;DHT22;22475;51.390;7.180;2023-12-22T03:10:10;11.50;83.80
36450;DHT22;22475;51.390;7.180;2023-12-22T03:12:38;11.50;82.60
36450;DHT22;22475;51.390;7.180;2023-12-22T03:15:06;11.50;83.30
36450;DHT22;22475;51.390;7.180;2023-12-22T03:17:33;11.60;84.10
36450;DHT22;22475;51.390;7.180;2023-12-22T03:19:59;11.60;82.70
36450;DHT22;22475;51.390;7.180;2023-12-22T03:22:26;11.60;82.60
36450;DHT22;22475;51.390;7.180;2023-12-22T03:24:53;11.60;82.40
36450;DHT22;22475;51.390;7.180;2023-12-22T03:27:20;11.60;83.90
36450;DHT22;22475;51.390;7.180;2023-12-22T03:29:48;11.60;82.80
36450;DHT22;22475;51.390;7.180;2023-12-22T03:32:15;11.60;82.80
36450;DHT22;22475;51.390;7.180;2023-12-22T03:34:42;11.60;82.90
36450;DHT22;22475;51.390;7.180;2023-12-22T03:37:08;11.60;83.10
36450;DHT22;22475;51.390;7.180;2023-12-22T03:39:35;11.50;83.10
36450;DHT22;22475;51.390;7.180;2023-12-22T03:42:02;11.50;83.40
36450;DHT22;22475;51.390;7.180;2023-12-22T03:44:29;11.50;83.30
36450;DHT22;22475;51.390;7.180;2023-12-22T03:46:57;11.60;85.80
36450;DHT22;22475;51.390;7.180;2023-12-22T03:49:23;11.60;84.30
36450;DHT22;22475;51.390;7.180;2023-12-22T03:51:50;11.70;83.80
36450;DHT22;22475;51.390;7.180;2023-12-22T03:54:17;11.60;83.60
36450;DHT22;22475;51.390;7.180;2023-12-22T03:56:44;11.60;83.30
36450;DHT22;22475;51.390;7.180;2023-12-22T03:59:11;11.60;83.40
36450;DHT22;22475;51.390;7.180;2023-12-22T04:01:38;11.60;83.60
36450;DHT22;22475;51.390;7.180;2023-12-22T04:04:06;11.70;83.70
36450;DHT22;22475;51.390;7.180;2023-12-22T04:06:37;11.70;83.80
36450;DHT22;22475;51.390;7.180;2023-12-22T04:09:04;11.70;84.20
36450;DHT22;22475;51.390;7.180;2023-12-22T04:11:31;11.70;84.00
36450;DHT22;22475;51.390;7.180;2023-12-22T04:13:58;11.70;84.40
36450;DHT22;22475;51.390;7.180;2023-12-22T04:16:24;11.80;84.10
36450;DHT22;22475;51.390;7.180;2023-12-22T04:18:51;11.80;83.90
36450;DHT22;22475;51.390;7.180;2023-12-22T04:21:19;11.70;83.70
36450;DHT22;22475;51.390;7.180;2023-12-22T04:23:46;11.80;84.00
36450;DHT22;22475;51.390;7.180;2023-12-22T04:26:13;11.80;84.90
36450;DHT22;22475;51.390;7.180;2023-12-22T04:28:40;11.80;83.90
36450;DHT22;22475;51.390;7.180;2023-12-22T04:31:06;11.80;84.10
36450;DHT22;22475;51.390;7.180;2023-12-22T04:33:33;11.80;83.60
36450;DHT22;22475;51.390;7.180;2023-12-22T04:36:00;11.70;83.60
36450;DHT22;22475;51.390;7.180;2023-12-22T04:38:28;11.70;84.00
36450;DHT22;22475;51.390;7.180;2023-12-22T04:40:55;11.70;84.20
36450;DHT22;22475;51.390;7.180;2023-12-22T04:43:21;11.70;84.30
36450;DHT22;22475;51.390;7.180;2023-12-22T04:45:48;11.60;84.60
36450;DHT22;22475;51.390;7.180;2023-12-22T04:48:15;11.60;84.90
36450;DHT22;22475;51.390;7.180;2023-12-22T04:50:42;11.60;85.20
36450;DHT22;22475;51.390;7.180;2023-12-22T04:53:08;11.60;85.60
36450;DHT22;22475;51.390;7.180;2023-12-22T04:55:36;11.60;85.80
36450;DHT22;22475;51.390;7.180;2023-12-22T04:58:03;11.60;85.90
36450;DHT22;22475;51.390;7.180;2023-12-22T05:00:30;11.60;86.10
36450;DHT22;22475;51.390;7.180;2023-12-22T05:02:57;11.60;86.30
36450;DHT22;22475;51.390;7.180;2023-12-22T05:05:23;11.50;86.20
36450;DHT22;22475;51.390;7.180;2023-12-22T05:07:50;11.60;86.40
36450;DHT22;22475;51.390;7.180;2023-12-22T05:10:17;11.60;86.50
36450;DHT22;22475;51.390;7.180;2023-12-22T05:12:45;11.50;86.40
36450;DHT22;22475;51.390;7.180;2023-12-22T05:15:12;11.50;86.20
36450;DHT22;22475;51.390;7.180;2023-12-22T05:17:39;11.50;86.20
36450;DHT22;22475;51.390;7.180;2023-12-22T05:20:07;11.60;86.30
36450;DHT22;22475;51.390;7.180;2023-12-22T05:22:36;11.60;86.40
36450;DHT22;22475;51.390;7.180;2023-12-22T05:25:04;11.60;86.70
36450;DHT22;22475;51.390;7.180;2023-12-22T05:27:31;11.60;86.00
36450;DHT22;22475;51.390;7.180;2023-12-22T05:29:59;11.60;85.90
36450;DHT22;22475;51.390;7.180;2023-12-22T05:32:28;11.60;85.90
36450;DHT22;22475;51.390;7.180;2023-12-22T05:34:55;11.60;85.60
36450;DHT22;22475;51.390;7.180;2023-12-22T05:37:22;11.60;85.50
36450;DHT22;22475;51.390;7.180;2023-12-22T05:39:49;11.60;85.50
36450;DHT22;22475;51.390;7.180;2023-12-22T05:42:16;11.60;86.10
36450;DHT22;22475;51.390;7.180;2023-12-22T05:44:42;11.60;85.40
36450;DHT22;22475;51.390;7.180;2023-12-22T05:47:13;11.60;85.30
36450;DHT22;22475;51.390;7.180;2023-12-22T05:49:40;11.60;85.40
36450;DHT22;22475;51.390;7.180;2023-12-22T05:52:07;11.60;85.40
36450;DHT22;22475;51.390;7.180;2023-12-22T05:54:35;11.60;85.60
36450;DHT22;22475;51.390;7.180;2023-12-22T05:57:02;11.60;85.90
36450;DHT22;22475;51.390;7.180;2023-12-22T05:59:30;11.60;85.90
36450;DHT22;22475;51.390;7.180;2023-12-22T06:01:57;11.70;85.90
36450;DHT22;22475;51.390;7.180;2023-12-22T06:04:26;11.60;85.80
36450;DHT22;22475;51.390;7.180;2023-12-22T06:06:53;11.60;86.00
36450;DHT22;22475;51.390;7.180;2023-12-22T06:09:20;11.60;85.90
36450;DHT22;22475;51.390;7.180;2023-12-22T06:11:48;11.60;85.80
36450;DHT22;22475;51.390;7.180;2023-12-22T06:14:14;11.60;86.10
36450;DHT22;22475;51.390;7.180;2023-12-22T06:16:41;11.60;85.80
36450;DHT22;22475;51.390;7.180;2023-12-22T06:19:08;11.70;85.70
36450;DHT22;22475;51.390;7.180;2023-12-22T06:21:38;11.70;85.50
36450;DHT22;22475;51.390;7.180;2023-12-22T06:24:06;11.60;86.30
36450;DHT22;22475;51.390;7.180;2023-12-22T06:26:33;11.60;85.60
36450;DHT22;22475;51.390;7.180;2023-12-22T06:29:00;11.60;85.70
36450;DHT22;22475;51.390;7.180;2023-12-22T06:31:27;11.60;85.80
36450;DHT22;22475;51.390;7.180;2023-12-22T06:33:53;11.60;85.90
36450;DHT22;22475;51.390;7.180;2023-12-22T06:36:26;11.60;86.00
36450;DHT22;22475;51.390;7.180;2023-12-22T06:38:54;11.70;86.20
36450;DHT22;22475;51.390;7.180;2023-12-22T06:41:21;11.60;85.90
36450;DHT22;22475;51.390;7.180;2023-12-22T06:43:48;11.70;85.80
36450;DHT22;22475;51.390;7.180;2023-12-22T06:46:16;11.70;85.80
36450;DHT22;22475;51.390;7.180;2023-12-22T06:48:43;11.70;85.80
36450;DHT22;22475;51.390;7.180;2023-12-22T06:51:17;11.70;85.80
36450;DHT22;22475;51.390;7.180;2023-12-22T06:53:44;11.70;85.80
36450;DHT22;22475;51.390;7.180;2023-12-22T06:56:16;11.70;85.70
36450;DHT22;22475;51.390;7.180;2023-12-22T06:58:43;11.70;85.70
36450;DHT22;22475;51.390;7.180;2023-12-22T07:01:11;11.70;85.80
36450;DHT22;22475;51.390;7.180;2023-12-22T07:03:38;11.70;85.70
36450;DHT22;22475;51.390;7.180;2023-12-22T07:06:05;11.70;85.70
36450;DHT22;22475;51.390;7.180;2023-12-22T07:08:32;11.70;85.70
36450;DHT22;22475;51.390;7.180;2023-12-22T07:10:59;11.70;85.50
36450;DHT22;22475;51.390;7.180;2023-12-22T07:13:27;11.70;85.50
36450;DHT22;22475;51.390;7.180;2023-12-22T07:15:54;11.70;85.50
36450;DHT22;22475;51.390;7.180;2023-12-22T07:18:21;11.70;85.80
36450;DHT22;22475;51.390;7.180;2023-12-22T07:20:47;11.70;85.70
36450;DHT22;22475;51.390;7.180;2023-12-22T07:23:14;11.80;85.50
36450;DHT22;22475;51.390;7.180;2023-12-22T07:25:41;11.80;86.80
36450;DHT22;22475;51.390;7.180;2023-12-22T07:28:08;11.80;86.30
36450;DHT22;22475;51.390;7.180;2023-12-22T07:30:36;11.80;85.90
36450;DHT22;22475;51.390;7.180;2023-12-22T07:33:03;11.90;86.10
36450;DHT22;22475;51.390;7.180;2023-12-22T07:35:30;11.90;85.40
36450;DHT22;22475;51.390;7.180;2023-12-22T07:37:57;11.90;86.20
36450;DHT22;22475;51.390;7.180;2023-12-22T07:40:24;11.90;87.30
36450;DHT22;22475;51.390;7.180;2023-12-22T07:42:51;12.00;86.90
36450;DHT22;22475;51.390;7.180;2023-12-22T07:45:18;12.00;85.70
36450;DHT22;22475;51.390;7.180;2023-12-22T07:47:46;12.00;85.80
36450;DHT22;22475;51.390;7.180;2023-12-22T07:50:13;12.00;86.00
36450;DHT22;22475;51.390;7.180;2023-12-22T07:52:40;12.00;85.70
36450;DHT22;22475;51.390;7.180;2023-12-22T07:55:08;12.00;86.10
36450;DHT22;22475;51.390;7.180;2023-12-22T07:57:36;12.00;85.80
36450;DHT22;22475;51.390;7.180;2023-12-22T08:00:04;12.00;86.50
36450;DHT22;22475;51.390;7.180;2023-12-22T08:02:31;12.00;86.20
36450;DHT22;22475;51.390;7.180;2023-12-22T08:04:59;12.00;86.20
36450;DHT22;22475;51.390;7.180;2023-12-22T08:07:25;12.00;86.30
36450;DHT22;22475;51.390;7.180;2023-12-22T08:09:52;12.00;86.30
36450;DHT22;22475;51.390;7.180;2023-12-22T08:12:19;12.00;88.00
36450;DHT22;22475;51.390;7.180;2023-12-22T08:14:46;12.00;87.10
36450;DHT22;22475;51.390;7.180;2023-12-22T08:17:13;12.00;87.10
36450;DHT22;22475;51.390;7.180;2023-12-22T08:19:40;12.10;87.20
36450;DHT22;22475;51.390;7.180;2023-12-22T08:22:09;12.10;87.20
36450;DHT22;22475;51.390;7.180;2023-12-22T08:24:36;12.10;87.30
36450;DHT22;22475;51.390;7.180;2023-12-22T08:27:03;12.10;87.60
36450;DHT22;22475;51.390;7.180;2023-12-22T08:29:30;12.20;88.40
36450;DHT22;22475;51.390;7.180;2023-12-22T08:31:56;12.20;87.80
36450;DHT22;22475;51.390;7.180;2023-12-22T08:34:23;12.20;88.50
36450;DHT22;22475;51.390;7.180;2023-12-22T08:36:50;12.10;88.00
36450;DHT22;22475;51.390;7.180;2023-12-22T08:39:18;12.10;88.00
36450;DHT22;22475;51.390;7.180;2023-12-22T08:41:45;12.10;88.10
36450;DHT22;22475;51.390;7.180;2023-12-22T08:44:12;12.20;90.00
36450;DHT22;22475;51.390;7.180;2023-12-22T08:46:40;12.30;91.70
36450;DHT22;22475;51.390;7.180;2023-12-22T08:49:06;12.30;90.10
36450;DHT22;22475;51.390;7.180;2023-12-22T08:51:33;12.20;88.90
36450;DHT22;22475;51.390;7.180;2023-12-22T08:54:00;12.20;88.70
36450;DHT22;22475;51.390;7.180;2023-12-22T08:56:28;12.10;88.70
36450;DHT22;22475;51.390;7.180;2023-12-22T08:58:55;12.20;89.50
36450;DHT22;22475;51.390;7.180;2023-12-22T09:01:24;12.20;90.00
36450;DHT22;22475;51.390;7.180;2023-12-22T09:03:51;12.30;89.50
36450;DHT22;22475;51.390;7.180;2023-12-22T09:06:21;12.30;89.40
36450;DHT22;22475;51.390;7.180;2023-12-22T09:08:48;12.30;89.30
36450;DHT22;22475;51.390;7.180;2023-12-22T09:11:18;12.20;89.50
36450;DHT22;22475;51.390;7.180;2023-12-22T09:13:47;12.20;89.60
36450;DHT22;22475;51.390;7.180;2023-12-22T09:16:19;12.20;89.60
36450;DHT22;22475;51.390;7.180;2023-12-22T09:18:46;12.30;90.10
36450;DHT22;22475;51.390;7.180;2023-12-22T09:21:14;12.30;90.00
36450;DHT22;22475;51.390;7.180;2023-12-22T09:23:41;12.20;89.80
36450;DHT22;22475;51.390;7.180;2023-12-22T09:26:11;12.20;89.70
36450;DHT22;22475;51.390;7.180;2023-12-22T09:28:38;12.20;89.80
36450;DHT22;22475;51.390;7.180;2023-12-22T09:31:06;12.10;89.60
36450;DHT22;22475;51.390;7.180;2023-12-22T09:33:33;12.10;89.60
36450;DHT22;22475;51.390;7.180;2023-12-22T09:36:00;12.10;89.40
36450;DHT22;22475;51.390;7.180;2023-12-22T09:38:27;12.10;89.40
36450;DHT22;22475;51.390;7.180;2023-12-22T09:40:55;12.10;89.60
36450;DHT22;22475;51.390;7.180;2023-12-22T09:43:22;12.10;89.80
36450;DHT22;22475;51.390;7.180;2023-12-22T09:45:49;12.10;90.00
36450;DHT22;22475;51.390;7.180;2023-12-22T09:48:18;12.20;90.20
36450;DHT22;22475;51.390;7.180;2023-12-22T09:50:52;12.10;90.30
36450;DHT22;22475;51.390;7.180;2023-12-22T09:53:20;12.10;90.40
36450;DHT22;22475;51.390;7.180;2023-12-22T09:55:47;12.10;90.50
36450;DHT22;22475;51.390;7.180;2023-12-22T09:58:15;12.10;90.60
36450;DHT22;22475;51.390;7.180;2023-12-22T10:00:43;12.10;90.60
36450;DHT22;22475;51.390;7.180;2023-12-22T10:03:11;12.10;90.70
36450;DHT22;22475;51.390;7.180;2023-12-22T10:05:40;12.10;90.80
36450;DHT22;22475;51.390;7.180;2023-12-22T10:08:09;12.10;91.00
36450;DHT22;22475;51.390;7.180;2023-12-22T10:10:38;12.20;91.20
36450;DHT22;22475;51.390;7.180;2023-12-22T10:13:06;12.10;91.20
36450;DHT22;22475;51.390;7.180;2023-12-22T10:15:37;12.10;91.30
36450;DHT22;22475;51.390;7.180;2023-12-22T10:18:07;12.10;91.40
36450;DHT22;22475;51.390;7.180;2023-12-22T10:20:47;12.10;91.50
36450;DHT22;22475;51.390;7.180;2023-12-22T10:23:16;12.10;91.60
36450;DHT22;22475;51.390;7.180;2023-12-22T10:25:44;12.10;91.50
36450;DHT22;22475;51.390;7.180;2023-12-22T10:28:12;12.10;91.50
36450;DHT22;22475;51.390;7.180;2023-12-22T10:30:40;12.10;91.60
36450;DHT22;22475;51.390;7.180;2023-12-22T10:33:11;12.10;91.60
36450;DHT22;22475;51.390;7.180;2023-12-22T10:35:38;12.10;91.60
36450;DHT22;22475;51.390;7.180;2023-12-22T10:38:09;12.10;91.80
36450;DHT22;22475;51.390;7.180;2023-12-22T10:40:37;12.10;91.90
36450;DHT22;22475;51.390;7.180;2023-12-22T10:43:04;12.10;91.90
36450;DHT22;22475;51.390;7.180;2023-12-22T10:45:31;12.10;92.00
36450;DHT22;22475;51.390;7.180;2023-12-22T10:47:58;12.20;92.10
36450;DHT22;22475;51.390;7.180;2023-12-22T10:50:25;12.20;92.10
36450;DHT22;22475;51.390;7.180;2023-12-22T10:52:52;12.10;92.20
36450;DHT22;22475;51.390;7.180;2023-12-22T10:55:20;12.20;92.30
36450;DHT22;22475;51.390;7.180;2023-12-22T10:57:47;12.20;92.50
36450;DHT22;22475;51.390;7.180;2023-12-22T11:00:15;12.20;92.60
36450;DHT22;22475;51.390;7.180;2023-12-22T11:02:43;12.10;92.60
36450;DHT22;22475;51.390;7.180;2023-12-22T11:05:13;12.10;92.50
36450;DHT22;22475;51.390;7.180;2023-12-22T11:07:47;12.10;92.50
36450;DHT22;22475;51.390;7.180;2023-12-22T11:10:18;12.20;92.40
36450;DHT22;22475;51.390;7.180;2023-12-22T11:12:47;12.10;92.20
36450;DHT22;22475;51.390;7.180;2023-12-22T11:15:14;12.10;92.10
36450;DHT22;22475;51.390;7.180;2023-12-22T11:17:42;12.10;92.00
36450;DHT22;22475;51.390;7.180;2023-12-22T11:20:10;12.10;92.10
36450;DHT22;22475;51.390;7.180;2023-12-22T11:22:39;12.10;92.10
36450;DHT22;22475;51.390;7.180;2023-12-22T11:25:07;12.10;91.90
36450;DHT22;22475;51.390;7.180;2023-12-22T11:27:36;12.10;91.80
36450;DHT22;22475;51.390;7.180;2023-12-22T11:30:06;12.10;91.70
36450;DHT22;22475;51.390;7.180;2023-12-22T11:32:34;12.10;91.50
36450;DHT22;22475;51.390;7.180;2023-12-22T11:35:02;12.10;91.40
36450;DHT22;22475;51.390;7.180;2023-12-22T11:37:31;12.10;91.40
36450;DHT22;22475;51.390;7.180;2023-12-22T11:39:58;12.10;91.30
36450;DHT22;22475;51.390;7.180;2023-12-22T11:42:28;12.20;91.30
36450;DHT22;22475;51.390;7.180;2023-12-22T11:44:57;12.20;91.30
36450;DHT22;22475;51.390;7.180;2023-12-22T11:47:25;12.20;91.40
36450;DHT22;22475;51.390;7.180;2023-12-22T11:49:53;12.20;91.50
36450;DHT22;22475;51.390;7.180;2023-12-22T11:52:25;12.20;91.50
36450;DHT22;22475;51.390;7.180;2023-12-22T11:54:54;12.20;91.60
36450;DHT22;22475;51.390;7.180;2023-12-22T11:57:35;12.20;91.60
36450;DHT22;22475;51.390;7.180;2023-12-22T12:00:05;12.20;91.80
36450;DHT22;22475;51.390;7.180;2023-12-22T12:02:35;12.30;92.00
36450;DHT22;22475;51.390;7.180;2023-12-22T12:05:03;12.30;92.20
36450;DHT22;22475;51.390;7.180;2023-12-22T12:07:37;12.20;92.50
36450;DHT22;22475;51.390;7.180;2023-12-22T12:10:05;12.30;92.70
36450;DHT22;22475;51.390;7.180;2023-12-22T12:12:32;12.30;92.80
36450;DHT22;22475;51.390;7.180;2023-12-22T12:15:06;12.30;92.90
36450;DHT22;22475;51.390;7.180;2023-12-22T12:17:38;12.30;93.00
36450;DHT22;22475;51.390;7.180;2023-12-22T12:20:07;12.40;93.10
36450;DHT22;22475;51.390;7.180;2023-12-22T12:22:35;12.40;93.10
36450;DHT22;22475;51.390;7.180;2023-12-22T12:25:07;12.40;93.30
36450;DHT22;22475;51.390;7.180;2023-12-22T12:27:36;12.30;93.30
36450;DHT22;22475;51.390;7.180;2023-12-22T12:30:11;12.30;93.40
36450;DHT22;22475;51.390;7.180;2023-12-22T12:32:42;12.30;93.40
36450;DHT22;22475;51.390;7.180;2023-12-22T12:35:10;12.40;93.40
36450;DHT22;22475;51.390;7.180;2023-12-22T12:37:37;12.40;93.30
36450;DHT22;22475;51.390;7.180;2023-12-22T12:40:07;12.40;93.20
36450;DHT22;22475;51.390;7.180;2023-12-22T12:42:36;12.50;93.20
36450;DHT22;22475;51.390;7.180;2023-12-22T12:45:04;12.50;93.30
36450;DHT22;22475;51.390;7.180;2023-12-22T12:47:31;12.50;92.90
36450;DHT22;22475;51.390;7.180;2023-12-22T12:49:59;12.50;92.90
36450;DHT22;22475;51.390;7.180;2023-12-22T12:52:26;12.60;92.70
36450;DHT22;22475;51.390;7.180;2023-12-22T12:54:54;12.50;92.50
36450;DHT22;22475;51.390;7.180;2023-12-22T12:57:21;12.50;92.50
36450;DHT22;22475;51.390;7.180;2023-12-22T12:59:49;12.50;92.70
36450;DHT22;22475;51.390;7.180;2023-12-22T13:02:16;12.40;92.40
36450;DHT22;22475;51.390;7.180;2023-12-22T13:04:44;12.40;92.50
36450;DHT22;22475;51.390;7.180;2023-12-22T13:07:12;12.40;92.80
36450;DHT22;22475;51.390;7.180;2023-12-22T13:09:39;12.40;92.80
36450;DHT22;22475;51.390;7.180;2023-12-22T13:12:08;12.40;92.90
36450;DHT22;22475;51.390;7.180;2023-12-22T13:14:35;12.40;93.00
36450;DHT22;22475;51.390;7.180;2023-12-22T13:17:02;12.50;93.20
36450;DHT22;22475;51.390;7.180;2023-12-22T13:19:29;12.40;93.10
36450;DHT22;22475;51.390;7.180;2023-12-22T13:21:56;12.40;93.10
36450;DHT22;22475;51.390;7.180;2023-12-22T13:24:24;12.40;93.30
36450;DHT22;22475;51.390;7.180;2023-12-22T13:27:00;12.40;93.10
36450;DHT22;22475;51.390;7.180;2023-12-22T13:29:29;12.30;93.10
36450;DHT22;22475;51.390;7.180;2023-12-22T13:31:55;12.30;93.10
36450;DHT22;22475;51.390;7.180;2023-12-22T13:34:23;12.30;93.10
36450;DHT22;22475;51.390;7.180;2023-12-22T13:36:50;12.30;93.10
36450;DHT22;22475;51.390;7.180;2023-12-22T13:39:17;12.40;93.10
36450;DHT22;22475;51.390;7.180;2023-12-22T13:41:45;12.40;93.10
36450;DHT22;22475;51.390;7.180;2023-12-22T13:44:13;12.50;93.20
36450;DHT22;22475;51.390;7.180;2023-12-22T13:46:40;12.50;93.00
36450;DHT22;22475;51.390;7.180;2023-12-22T13:49:08;12.50;93.00
36450;DHT22;22475;51.390;7.180;2023-12-22T13:51:39;12.60;93.00
36450;DHT22;22475;51.390;7.180;2023-12-22T13:54:06;12.60;93.00
36450;DHT22;22475;51.390;7.180;2023-12-22T13:56:33;12.50;93.00
36450;DHT22;22475;51.390;7.180;2023-12-22T13:59:03;12.60;93.10
36450;DHT22;22475;51.390;7.180;2023-12-22T14:01:30;12.60;93.10
36450;DHT22;22475;51.390;7.180;2023-12-22T14:03:58;12.50;93.10
36450;DHT22;22475;51.390;7.180;2023-12-22T14:06:25;12.50;93.20
36450;DHT22;22475;51.390;7.180;2023-12-22T14:08:52;12.50;93.20
36450;DHT22;22475;51.390;7.180;2023-12-22T14:11:19;12.60;93.20
36450;DHT22;22475;51.390;7.180;2023-12-22T14:13:46;12.50;93.10
36450;DHT22;22475;51.390;7.180;2023-12-22T14:16:14;12.60;93.10
36450;DHT22;22475;51.390;7.180;2023-12-22T14:18:41;12.60;93.10
36450;DHT22;22475;51.390;7.180;2023-12-22T14:21:08;12.60;93.00
36450;DHT22;22475;51.390;7.180;2023-12-22T14:23:34;12.60;93.10
36450;DHT22;22475;51.390;7.180;2023-12-22T14:26:01;12.60;93.20
36450;DHT22;22475;51.390;7.180;2023-12-22T14:28:28;12.60;93.40
36450;DHT22;22475;51.390;7.180;2023-12-22T14:30:55;12.80;93.40
36450;DHT22;22475;51.390;7.180;2023-12-22T14:33:23;12.80;93.20
36450;DHT22;22475;51.390;7.180;2023-12-22T14:35:50;12.80;93.00
36450;DHT22;22475;51.390;7.180;2023-12-22T14:38:17;12.80;93.10
36450;DHT22;22475;51.390;7.180;2023-12-22T14:40:44;12.80;93.00
36450;DHT22;22475;51.390;7.180;2023-12-22T14:43:11;12.80;92.60
36450;DHT22;22475;51.390;7.180;2023-12-22T14:45:37;12.80;92.50
36450;DHT22;22475;51.390;7.180;2023-12-22T14:48:05;12.70;92.40
36450;DHT22;22475;51.390;7.180;2023-12-22T14:50:33;12.70;92.40
36450;DHT22;22475;51.390;7.180;2023-12-22T14:53:00;12.70;92.40
36450;DHT22;22475;51.390;7.180;2023-12-22T14:55:27;12.70;92.40
36450;DHT22;22475;51.390;7.180;2023-12-22T14:57:54;12.70;92.30
36450;DHT22;22475;51.390;7.180;2023-12-22T15:00:21;12.70;92.20
36450;DHT22;22475;51.390;7.180;2023-12-22T15:02:48;12.70;92.40
36450;DHT22;22475;51.390;7.180;2023-12-22T15:05:14;12.70;92.30
36450;DHT22;22475;51.390;7.180;2023-12-22T15:07:43;12.70;92.60
36450;DHT22;22475;51.390;7.180;2023-12-22T15:10:10;12.80;92.40
36450;DHT22;22475;51.390;7.180;2023-12-22T15:12:37;12.90;92.50
36450;DHT22;22475;51.390;7.180;2023-12-22T15:15:08;12.90;92.30
36450;DHT22;22475;51.390;7.180;2023-12-22T15:17:35;12.90;92.30
36450;DHT22;22475;51.390;7.180;2023-12-22T15:20:02;12.90;92.40
36450;DHT22;22475;51.390;7.180;2023-12-22T15:22:30;12.90;92.40
36450;DHT22;22475;51.390;7.180;2023-12-22T15:24:58;12.90;92.40
36450;DHT22;22475;51.390;7.180;2023-12-22T15:27:25;12.80;92.50
36450;DHT22;22475;51.390;7.180;2023-12-22T15:29:52;12.80;92.60
36450;DHT22;22475;51.390;7.180;2023-12-22T15:32:20;12.90;92.60